createdAt,value
2022-11-09T00:01:39.524Z,73.37
2022-11-09T00:04:09.164Z,72.93
2022-11-09T00:06:37.964Z,72.80
2022-11-09T00:09:09.667Z,71.92
2022-11-09T00:11:39.057Z,71.76
2022-11-09T00:14:07.593Z,71.84
2022-11-09T00:16:36.521Z,71.55
2022-11-09T00:19:04.924Z,71.43
2022-11-09T00:21:33.318Z,72.19
2022-11-09T00:24:01.724Z,71.85
2022-11-09T00:26:30.134Z,72.33
2022-11-09T00:28:58.506Z,72.38
2022-11-09T00:31:27.038Z,72.44
2022-11-09T00:33:57.838Z,72.50
2022-11-09T00:36:28.619Z,72.27
2022-11-09T00:39:02.052Z,72.17
2022-11-09T00:41:31.130Z,72.22
2022-11-09T00:43:59.949Z,72.37
2022-11-09T00:46:28.701Z,72.71
2022-11-09T00:48:57.619Z,73.03
2022-11-09T00:51:26.250Z,72.83
2022-11-09T00:53:55.577Z,72.92
2022-11-09T00:56:24.487Z,72.90
2022-11-09T00:58:57.127Z,72.65
2022-11-09T01:01:25.884Z,72.39
2022-11-09T01:03:54.475Z,71.82
2022-11-09T01:06:27.378Z,71.95
2022-11-09T01:08:56.250Z,71.82
2022-11-09T01:11:25.312Z,72.40
2022-11-09T01:13:53.692Z,72.52
2022-11-09T01:16:24.648Z,72.82
2022-11-09T01:18:58.157Z,73.03
2022-11-09T01:21:28.156Z,73.46
2022-11-09T01:23:58.516Z,73.38
2022-11-09T01:26:27.099Z,73.01
2022-11-09T01:28:55.513Z,72.92
2022-11-09T01:31:24.393Z,72.84
2022-11-09T01:33:52.972Z,72.58
2022-11-09T01:36:25.145Z,72.39
2022-11-09T01:38:53.849Z,72.33
2022-11-09T01:41:26.352Z,72.03
2022-11-09T01:44:07.941Z,72.09
2022-11-09T01:46:54.866Z,71.55
2022-11-09T01:49:48.780Z,71.55
2022-11-09T01:52:30.278Z,71.97
2022-11-09T01:55:15.045Z,71.78
2022-11-09T01:57:48.206Z,71.80
2022-11-09T02:00:18.440Z,71.36
2022-11-09T02:02:55.848Z,71.64
2022-11-09T02:05:29.327Z,71.90
2022-11-09T02:07:58.020Z,72.02
2022-11-09T02:10:32.337Z,72.06
2022-11-09T02:13:01.547Z,71.89
2022-11-09T02:15:30.005Z,71.61
2022-11-09T02:17:58.786Z,71.67
2022-11-09T02:20:27.472Z,71.46
2022-11-09T02:22:55.865Z,71.48
2022-11-09T02:25:24.061Z,71.67
2022-11-09T02:27:52.568Z,71.50
2022-11-09T02:30:22.051Z,71.47
2022-11-09T02:32:50.458Z,71.56
2022-11-09T02:35:18.873Z,71.37
2022-11-09T02:37:51.514Z,71.65
2022-11-09T02:40:28.328Z,71.35
2022-11-09T02:42:57.229Z,71.33
2022-11-09T02:45:25.681Z,71.46
2022-11-09T02:47:54.177Z,71.15
2022-11-09T02:50:22.519Z,71.30
2022-11-09T02:52:50.899Z,71.01
2022-11-09T02:55:19.679Z,70.89
2022-11-09T02:57:48.046Z,71.01
2022-11-09T03:00:16.872Z,71.04
2022-11-09T03:02:45.287Z,71.25
2022-11-09T03:05:13.880Z,71.26
2022-11-09T03:07:42.250Z,71.49
2022-11-09T03:10:11.000Z,71.34
2022-11-09T03:12:39.395Z,71.42
2022-11-09T03:15:09.905Z,71.65
2022-11-09T03:17:38.545Z,71.53
2022-11-09T03:20:07.337Z,71.46
2022-11-09T03:22:35.680Z,71.61
2022-11-09T03:25:04.145Z,71.74
2022-11-09T03:27:32.787Z,71.60
2022-11-09T03:30:01.094Z,71.35
2022-11-09T03:32:29.421Z,71.58
2022-11-09T03:34:57.890Z,71.60
2022-11-09T03:37:26.627Z,71.48
2022-11-09T03:39:55.203Z,70.97
2022-11-09T03:42:23.612Z,71.38
2022-11-09T03:44:51.994Z,71.73
2022-11-09T03:47:20.520Z,71.63
2022-11-09T03:49:48.988Z,71.21
2022-11-09T03:52:17.616Z,71.66
2022-11-09T03:54:45.998Z,71.59
2022-11-09T03:57:14.323Z,71.19
2022-11-09T03:59:42.659Z,71.20
2022-11-09T04:02:11.084Z,71.64
2022-11-09T04:04:39.572Z,72.10
2022-11-09T04:07:08.115Z,71.90
2022-11-09T04:09:36.512Z,72.47
2022-11-09T04:12:05.595Z,72.64
2022-11-09T04:14:33.963Z,73.00
2022-11-09T04:17:02.300Z,72.93
2022-11-09T04:19:30.807Z,73.06
2022-11-09T04:21:59.105Z,73.51
2022-11-09T04:24:27.595Z,73.89
2022-11-09T04:26:55.980Z,74.19
2022-11-09T04:29:24.616Z,74.39
2022-11-09T04:31:53.366Z,73.99
2022-11-09T04:34:21.737Z,73.72
2022-11-09T04:36:50.228Z,73.43
2022-11-09T04:39:18.564Z,73.50
2022-11-09T04:41:46.899Z,73.89
2022-11-09T04:44:15.255Z,74.23
2022-11-09T04:46:43.832Z,74.33
2022-11-09T04:49:12.177Z,75.59
2022-11-09T04:51:40.490Z,76.60
2022-11-09T04:54:08.915Z,77.88
2022-11-09T04:56:37.281Z,78.61
2022-11-09T04:59:05.739Z,79.42
2022-11-09T05:01:34.183Z,80.43
2022-11-09T05:04:02.523Z,81.65
2022-11-09T05:06:33.703Z,82.04
2022-11-09T05:09:10.705Z,83.01
2022-11-09T05:11:39.303Z,84.05
2022-11-09T05:14:07.968Z,85.03
2022-11-09T05:16:36.294Z,86.19
2022-11-09T05:19:04.938Z,86.29
2022-11-09T05:21:33.313Z,87.40
2022-11-09T05:24:00.916Z,87.84
2022-11-09T05:26:38.976Z,88.35
2022-11-09T05:29:13.153Z,88.75
2022-11-09T05:31:45.445Z,88.93
2022-11-09T05:34:15.257Z,89.17
2022-11-09T05:36:43.574Z,89.20
2022-11-09T05:39:12.073Z,89.20
2022-11-09T05:41:40.426Z,89.20
2022-11-09T05:44:08.409Z,89.61
2022-11-09T05:46:36.859Z,90.26
2022-11-09T05:49:05.567Z,91.49
2022-11-09T05:51:34.315Z,92.24
2022-11-09T05:54:02.787Z,92.20
2022-11-09T05:59:11.038Z,92.48
2022-11-09T06:01:39.518Z,92.23
2022-11-09T06:04:08.014Z,91.83
2022-11-09T06:06:36.567Z,91.64
2022-11-09T06:09:04.659Z,91.80
2022-11-09T06:11:33.046Z,91.76
2022-11-09T06:14:01.407Z,91.77
2022-11-09T06:16:29.802Z,91.84
2022-11-09T06:18:58.500Z,91.65
2022-11-09T06:21:26.870Z,91.70
2022-11-09T06:23:55.207Z,91.64
2022-11-09T06:26:23.592Z,91.70
2022-11-09T06:28:51.943Z,91.28
2022-11-09T06:31:20.973Z,91.36
2022-11-09T06:33:49.370Z,91.07
2022-11-09T06:36:17.728Z,91.01
2022-11-09T06:38:46.171Z,91.25
2022-11-09T06:41:14.577Z,91.55
2022-11-09T06:43:42.968Z,91.82
2022-11-09T06:46:12.173Z,91.95
2022-11-09T06:48:40.924Z,92.15
2022-11-09T06:51:09.316Z,92.35
2022-11-09T06:53:38.640Z,92.63
2022-11-09T06:56:07.524Z,93.24
2022-11-09T06:58:36.367Z,93.71
2022-11-09T07:01:17.912Z,94.36
2022-11-09T07:03:46.612Z,94.98
2022-11-09T07:06:15.580Z,95.40
2022-11-09T07:08:43.942Z,96.11
2022-11-09T07:11:16.243Z,96.88
2022-11-09T07:13:44.645Z,98.20
2022-11-09T07:16:17.126Z,98.93
2022-11-09T07:18:46.686Z,98.95
2022-11-09T07:21:15.468Z,99.02
2022-11-09T07:23:49.401Z,99.60
2022-11-09T07:26:18.431Z,99.87
2022-11-09T07:28:46.856Z,100.00
2022-11-09T07:31:15.261Z,100.00
2022-11-09T07:33:43.660Z,100.00
2022-11-09T07:36:14.624Z,100.00
2022-11-09T07:38:46.720Z,100.00
2022-11-09T07:41:15.084Z,100.00
2022-11-09T07:43:43.470Z,100.00
2022-11-09T07:46:11.776Z,100.00
2022-11-09T07:48:40.157Z,100.00
2022-11-09T07:51:08.651Z,100.00
2022-11-09T07:53:40.751Z,100.00
2022-11-09T07:56:09.351Z,100.00
2022-11-09T07:58:37.775Z,100.00
2022-11-09T08:01:12.962Z,100.00
2022-11-09T08:03:41.381Z,100.00
2022-11-09T08:06:13.076Z,100.00
2022-11-09T08:08:44.113Z,100.00
2022-11-09T08:11:12.631Z,100.00
2022-11-09T08:13:43.952Z,100.00
2022-11-09T08:16:12.677Z,100.00
2022-11-09T08:18:41.206Z,100.00
2022-11-09T08:21:09.282Z,100.00
2022-11-09T08:23:40.003Z,100.00
2022-11-09T08:26:08.740Z,100.00
2022-11-09T08:28:37.191Z,100.00
2022-11-09T08:31:08.779Z,100.00
2022-11-09T08:33:41.642Z,100.00
2022-11-09T08:36:12.606Z,100.00
2022-11-09T08:38:46.616Z,100.00
2022-11-09T08:41:15.674Z,100.00
2022-11-09T08:43:43.958Z,100.00
2022-11-09T08:46:12.635Z,100.00
2022-11-09T08:48:41.096Z,100.00
2022-11-09T08:51:09.097Z,100.00
2022-11-09T08:53:37.506Z,100.00
2022-11-09T08:56:08.565Z,100.00
2022-11-09T08:58:37.297Z,100.00
2022-11-09T09:01:16.688Z,100.00
2022-11-09T09:03:46.784Z,100.00
2022-11-09T09:06:15.116Z,100.00
2022-11-09T09:08:43.642Z,100.00
2022-11-09T09:11:12.019Z,100.00
2022-11-09T09:13:43.361Z,100.00
2022-11-09T09:16:17.276Z,100.00
2022-11-09T09:18:45.651Z,100.00
2022-11-09T09:21:14.065Z,100.00
2022-11-09T09:23:42.506Z,100.00
2022-11-09T09:26:10.908Z,99.55
2022-11-09T09:28:39.289Z,99.19
2022-11-09T09:31:08.257Z,98.54
2022-11-09T09:33:36.767Z,98.52
2022-11-09T09:36:05.262Z,98.41
2022-11-09T09:38:34.064Z,97.67
2022-11-09T09:41:05.283Z,97.72
2022-11-09T09:43:43.849Z,97.36
2022-11-09T09:46:36.719Z,97.21
2022-11-09T09:49:18.516Z,96.89
2022-11-09T09:51:58.386Z,96.48
2022-11-09T09:54:36.974Z,95.16
2022-11-09T09:57:05.462Z,94.91
2022-11-09T09:59:45.883Z,94.77
2022-11-09T10:02:27.044Z,93.98
2022-11-09T10:04:59.212Z,94.13
2022-11-09T10:07:40.217Z,93.92
2022-11-09T10:10:26.269Z,93.66
2022-11-09T10:13:23.453Z,93.83
2022-11-09T10:16:05.146Z,93.60
2022-11-09T10:19:22.832Z,93.02
2022-11-09T10:22:18.413Z,93.03
2022-11-09T10:28:13.132Z,92.25
2022-11-09T10:30:42.137Z,92.06
2022-11-09T10:33:21.410Z,92.02
2022-11-09T10:36:33.078Z,91.86
2022-11-09T10:39:02.626Z,92.40
2022-11-09T10:41:39.146Z,92.50
2022-11-09T10:44:13.469Z,92.14
2022-11-09T10:47:08.648Z,91.85
2022-11-09T10:49:37.976Z,91.82
2022-11-09T10:52:11.028Z,91.58
2022-11-09T10:54:39.515Z,91.35
2022-11-09T10:57:25.741Z,90.71
2022-11-09T10:59:59.363Z,89.99
2022-11-09T11:02:28.984Z,89.09
2022-11-09T11:05:08.862Z,89.01
2022-11-09T11:07:37.577Z,88.82
2022-11-09T11:10:17.288Z,88.62
2022-11-09T11:12:48.263Z,87.92
2022-11-09T11:15:29.677Z,88.06
2022-11-09T11:18:30.325Z,88.02
2022-11-09T11:21:18.645Z,87.98
2022-11-09T11:24:21.402Z,88.12
2022-11-09T11:27:10.377Z,87.67
2022-11-09T11:30:01.607Z,87.54
2022-11-09T11:32:29.989Z,87.12
2022-11-09T11:35:00.614Z,86.82
2022-11-09T11:38:02.116Z,87.25
2022-11-09T11:40:57.442Z,87.37
2022-11-09T11:43:36.928Z,87.49
2022-11-09T11:46:44.322Z,87.41
2022-11-09T11:50:15.106Z,87.68
2022-11-09T11:52:57.124Z,87.59
2022-11-09T11:55:41.796Z,87.27
2022-11-09T11:58:20.093Z,87.21
2022-11-09T12:01:01.743Z,87.11
2022-11-09T12:04:04.660Z,86.95
2022-11-09T12:06:47.364Z,87.08
2022-11-09T12:09:40.579Z,86.81
2022-11-09T12:12:28.885Z,86.48
2022-11-09T12:15:35.286Z,86.17
2022-11-09T12:18:13.193Z,86.13
2022-11-09T12:20:56.880Z,85.74
2022-11-09T12:23:25.403Z,85.68
2022-11-09T12:26:33.835Z,85.25
2022-11-09T12:29:12.190Z,85.32
2022-11-09T12:32:33.559Z,84.76
2022-11-09T12:35:18.967Z,85.18
2022-11-09T12:38:16.086Z,84.79
2022-11-09T12:41:05.370Z,84.80
2022-11-09T12:43:57.436Z,84.75
2022-11-09T12:46:35.402Z,84.62
2022-11-09T12:49:06.033Z,84.48
2022-11-09T12:51:35.369Z,83.98
2022-11-09T12:54:11.793Z,84.08
2022-11-09T12:56:58.982Z,84.08
2022-11-09T12:59:30.076Z,84.02
2022-11-09T13:02:01.038Z,83.96
2022-11-09T13:04:29.725Z,83.89
2022-11-09T13:07:41.246Z,84.03
2022-11-09T13:10:28.527Z,83.29
2022-11-09T13:13:15.168Z,83.67
2022-11-09T13:16:12.632Z,83.54
2022-11-09T13:18:45.620Z,83.54
2022-11-09T13:21:23.612Z,83.52
2022-11-09T13:24:02.643Z,83.31
2022-11-09T13:26:32.871Z,83.27
2022-11-09T13:29:16.195Z,82.94
2022-11-09T13:32:14.189Z,83.05
2022-11-09T13:35:00.169Z,83.09
2022-11-09T13:37:43.788Z,83.34
2022-11-09T13:40:33.452Z,82.96
2022-11-09T13:43:23.172Z,82.99
2022-11-09T13:46:22.769Z,82.76
2022-11-09T13:48:55.354Z,82.45
2022-11-09T13:51:46.520Z,82.63
2022-11-09T13:54:45.272Z,82.14
2022-11-09T13:57:13.829Z,82.04
2022-11-09T13:59:50.619Z,81.95
2022-11-09T14:02:25.143Z,81.75
2022-11-09T14:04:54.208Z,81.88
2022-11-09T14:07:29.139Z,82.07
2022-11-09T14:10:16.262Z,81.58
2022-11-09T14:13:35.671Z,82.04
2022-11-09T14:16:27.703Z,82.25
2022-11-09T14:19:57.525Z,82.24
2022-11-09T14:22:25.988Z,82.00
2022-11-09T14:24:54.439Z,80.89
2022-11-09T14:27:24.183Z,79.67
2022-11-09T14:29:56.401Z,79.62
2022-11-09T14:32:35.690Z,79.70
2022-11-09T14:35:31.375Z,79.80
2022-11-09T14:38:02.408Z,79.64
2022-11-09T14:40:34.933Z,79.52
2022-11-09T14:43:04.835Z,79.47
2022-11-09T14:45:33.427Z,80.10
2022-11-09T14:48:02.273Z,80.86
2022-11-09T14:50:38.673Z,80.87
2022-11-09T14:53:07.320Z,80.90
2022-11-09T14:55:39.852Z,81.11
2022-11-09T14:58:10.910Z,81.16
2022-11-09T15:00:43.281Z,81.20
2022-11-09T15:03:31.614Z,80.82
2022-11-09T15:06:14.133Z,80.74
2022-11-09T15:08:59.624Z,80.49
2022-11-09T15:11:42.439Z,80.49
2022-11-09T15:14:30.399Z,80.25
2022-11-09T15:17:09.487Z,80.10
2022-11-09T15:20:05.848Z,79.96
2022-11-09T15:22:56.202Z,79.89
2022-11-09T15:25:42.540Z,80.06
2022-11-09T15:28:13.575Z,79.81
2022-11-09T15:31:16.780Z,79.83
2022-11-09T15:33:52.252Z,79.87
2022-11-09T15:36:55.436Z,80.09
2022-11-09T15:39:25.223Z,80.38
2022-11-09T15:41:53.657Z,80.58
2022-11-09T15:44:22.380Z,80.61
2022-11-09T15:46:54.346Z,80.67
2022-11-09T15:49:26.970Z,80.86
2022-11-09T15:51:56.061Z,81.14
2022-11-09T15:54:25.503Z,81.52
2022-11-09T15:56:54.041Z,81.81
2022-11-09T15:59:28.190Z,81.93
2022-11-09T16:01:56.648Z,82.08
2022-11-09T16:04:25.176Z,82.07
2022-11-09T16:06:53.644Z,82.21
2022-11-09T16:09:22.215Z,82.33
2022-11-09T16:11:51.056Z,82.59
2022-11-09T16:14:22.098Z,82.53
2022-11-09T16:16:50.632Z,82.78
2022-11-09T16:19:19.146Z,82.85
2022-11-09T16:21:47.587Z,83.08
2022-11-09T16:24:18.008Z,83.02
2022-11-09T16:26:46.628Z,82.96
2022-11-09T16:29:15.250Z,83.21
2022-11-09T16:31:52.429Z,83.62
2022-11-09T16:34:21.502Z,84.06
2022-11-09T16:36:56.442Z,84.69
2022-11-09T16:39:27.405Z,85.18
2022-11-09T16:41:56.701Z,85.23
2022-11-09T16:44:25.730Z,85.73
2022-11-09T16:46:54.208Z,86.02
2022-11-09T16:49:22.682Z,86.02
2022-11-09T16:51:51.221Z,85.85
2022-11-09T16:54:19.742Z,85.95
2022-11-09T16:56:48.559Z,85.95
2022-11-09T16:59:17.574Z,85.78
2022-11-09T17:01:58.527Z,85.64
2022-11-09T17:04:27.446Z,85.79
2022-11-09T17:06:55.983Z,85.74
2022-11-09T17:09:24.526Z,86.13
2022-11-09T17:11:52.579Z,86.47
2022-11-09T17:14:21.060Z,86.19
2022-11-09T17:16:49.772Z,86.13
2022-11-09T17:19:18.306Z,86.49
2022-11-09T17:21:46.900Z,86.52
2022-11-09T17:24:15.774Z,86.87
2022-11-09T17:26:44.478Z,86.86
2022-11-09T17:29:15.030Z,87.06
2022-11-09T17:31:43.586Z,87.00
2022-11-09T17:34:12.428Z,87.42
2022-11-09T17:37:02.877Z,87.22
2022-11-09T17:39:29.656Z,87.45
2022-11-09T17:41:57.741Z,87.22
2022-11-09T17:44:26.192Z,87.23
2022-11-09T17:46:54.693Z,87.24
2022-11-09T17:49:23.116Z,87.41
2022-11-09T17:51:51.528Z,87.41
2022-11-09T17:54:20.062Z,87.43
2022-11-09T17:56:48.564Z,87.52
2022-11-09T17:59:16.986Z,87.69
2022-11-09T18:01:45.398Z,87.57
2022-11-09T18:04:13.879Z,87.78
2022-11-09T18:06:42.318Z,87.71
2022-11-09T18:09:39.817Z,87.93
2022-11-09T18:12:05.130Z,87.83
2022-11-09T18:14:33.778Z,87.75
2022-11-09T18:17:02.328Z,87.89
2022-11-09T18:19:30.818Z,87.77
2022-11-09T18:22:02.678Z,87.81
2022-11-09T18:24:31.884Z,87.89
2022-11-09T18:27:01.037Z,87.63
2022-11-09T18:29:29.597Z,87.96
2022-11-09T18:31:58.084Z,87.64
2022-11-09T18:34:26.495Z,87.57
2022-11-09T18:36:55.190Z,87.55
2022-11-09T18:39:26.304Z,87.49
2022-11-09T18:41:56.970Z,87.46
2022-11-09T18:44:25.367Z,87.50
2022-11-09T18:46:53.838Z,87.48
2022-11-09T18:49:22.524Z,87.51
2022-11-09T18:51:50.640Z,87.41
2022-11-09T18:54:18.837Z,87.61
2022-11-09T18:56:47.763Z,87.70
2022-11-09T18:59:16.573Z,87.51
2022-11-09T19:01:45.425Z,87.37
2022-11-09T19:04:17.989Z,87.49
2022-11-09T19:06:47.014Z,87.39
2022-11-09T19:09:35.685Z,87.19
2022-11-09T19:12:09.116Z,87.16
2022-11-09T19:14:41.094Z,87.39
2022-11-09T19:17:17.780Z,87.23
2022-11-09T19:19:46.350Z,87.13
2022-11-09T19:22:19.059Z,87.29
2022-11-09T19:24:48.000Z,87.54
2022-11-09T19:27:16.724Z,87.46
2022-11-09T19:29:45.323Z,87.54
2022-11-09T19:32:13.798Z,87.83
2022-11-09T19:34:42.840Z,87.95
2022-11-09T19:37:11.696Z,88.07
2022-11-09T19:39:43.259Z,88.12
2022-11-09T19:42:11.961Z,88.30
2022-11-09T19:44:40.614Z,88.68
2022-11-09T19:47:09.348Z,88.65
2022-11-09T19:49:37.954Z,88.78
2022-11-09T19:52:06.439Z,88.81
2022-11-09T19:54:34.998Z,88.98
2022-11-09T19:57:03.473Z,89.02
2022-11-09T19:59:31.888Z,88.75
2022-11-09T20:02:00.432Z,88.65
2022-11-09T20:04:29.353Z,88.43
2022-11-09T20:06:57.867Z,88.32
2022-11-09T20:09:26.621Z,88.41
2022-11-09T20:12:12.326Z,88.36
2022-11-09T20:14:40.703Z,88.28
2022-11-09T20:17:09.318Z,88.28
2022-11-09T20:19:37.900Z,88.34
2022-11-09T20:22:06.799Z,88.33
2022-11-09T20:24:35.452Z,88.16
2022-11-09T20:27:03.906Z,88.24
2022-11-09T20:29:32.512Z,88.31
2022-11-09T20:32:00.885Z,88.28
2022-11-09T20:34:31.235Z,88.37
2022-11-09T20:36:59.766Z,88.45
2022-11-09T20:39:27.875Z,88.52
2022-11-09T20:41:56.371Z,88.48
2022-11-09T20:44:27.497Z,88.44
2022-11-09T20:46:56.803Z,88.67
2022-11-09T20:49:25.552Z,88.78
2022-11-09T20:51:54.011Z,89.03
2022-11-09T20:54:22.625Z,88.95
2022-11-09T20:56:51.083Z,88.93
2022-11-09T20:59:19.595Z,88.89
2022-11-09T21:01:48.683Z,88.88
2022-11-09T21:04:17.525Z,88.93
2022-11-09T21:06:45.984Z,88.93
2022-11-09T21:09:14.644Z,89.14
2022-11-09T21:11:57.389Z,89.09
2022-11-09T21:14:25.536Z,89.21
2022-11-09T21:16:54.197Z,88.84
2022-11-09T21:19:22.629Z,88.88
2022-11-09T21:21:51.808Z,89.01
2022-11-09T21:24:37.491Z,88.95
2022-11-09T21:27:23.591Z,89.20
2022-11-09T21:29:52.072Z,89.17
2022-11-09T21:32:22.915Z,89.25
2022-11-09T21:34:52.374Z,89.55
2022-11-09T21:37:20.830Z,89.97
2022-11-09T21:39:49.402Z,90.08
2022-11-09T21:42:17.941Z,90.07
2022-11-09T21:44:46.454Z,90.48
2022-11-09T21:47:15.011Z,90.52
2022-11-09T21:49:43.726Z,90.68
2022-11-09T21:52:12.274Z,90.65
2022-11-09T21:54:40.682Z,90.50
2022-11-09T21:57:09.443Z,90.57
2022-11-09T21:59:37.844Z,90.41
2022-11-09T22:02:06.347Z,90.44
2022-11-09T22:04:34.775Z,90.93
2022-11-09T22:07:03.401Z,91.13
2022-11-09T22:09:50.449Z,91.10
2022-11-09T22:12:37.635Z,91.10
2022-11-09T22:15:23.534Z,91.18
2022-11-09T22:17:55.128Z,91.19
2022-11-09T22:20:41.484Z,91.45
2022-11-09T22:23:10.442Z,91.20
2022-11-09T22:25:40.737Z,91.22
2022-11-09T22:28:12.055Z,91.23
2022-11-09T22:30:40.494Z,91.37
2022-11-09T22:33:08.640Z,91.60
2022-11-09T22:35:37.063Z,91.52
2022-11-09T22:38:05.662Z,91.67
2022-11-09T22:40:34.316Z,91.48
2022-11-09T22:43:02.923Z,91.44
2022-11-09T22:45:31.010Z,91.65
2022-11-09T22:48:00.600Z,91.68
2022-11-09T22:50:28.821Z,91.69
2022-11-09T22:53:03.756Z,91.55
2022-11-09T22:55:32.651Z,91.61
2022-11-09T22:58:01.610Z,91.37
2022-11-09T23:00:30.214Z,91.26
2022-11-09T23:02:58.885Z,91.00
2022-11-09T23:05:27.345Z,91.15
2022-11-09T23:07:57.455Z,91.19
2022-11-09T23:10:25.599Z,91.19
2022-11-09T23:12:54.091Z,90.60
2022-11-09T23:15:22.184Z,90.71
2022-11-09T23:18:14.609Z,90.31
2022-11-09T23:20:43.952Z,90.09
2022-11-09T23:23:12.571Z,90.05
2022-11-09T23:25:57.076Z,89.82
2022-11-09T23:28:25.979Z,89.76
2022-11-09T23:30:54.441Z,89.80
2022-11-09T23:33:22.624Z,89.40
2022-11-09T23:35:51.173Z,89.37
2022-11-09T23:38:19.629Z,89.10
2022-11-09T23:40:48.358Z,88.36
2022-11-09T23:43:17.354Z,88.25
2022-11-09T23:45:46.395Z,88.18
2022-11-09T23:48:18.568Z,88.40
2022-11-09T23:50:49.216Z,88.35
2022-11-09T23:53:17.721Z,88.12
2022-11-09T23:55:46.409Z,87.63
2022-11-09T23:58:15.129Z,87.74
